createdAt,value
2017-12-16T00:01:28.297Z,87.35
2017-12-16T00:03:55.892Z,87.75
2017-12-16T00:06:23.474Z,87.98
2017-12-16T00:08:51.047Z,88.16
2017-12-16T00:11:18.654Z,88.61
2017-12-16T00:13:46.255Z,88.41
2017-12-16T00:16:13.785Z,88.21
2017-12-16T00:18:41.377Z,88.23
2017-12-16T00:21:09.008Z,88.33
2017-12-16T00:23:36.591Z,88.49
2017-12-16T00:26:04.173Z,88.42
2017-12-16T00:28:31.757Z,88.52
2017-12-16T00:30:59.326Z,88.48
2017-12-16T00:33:26.953Z,88.78
2017-12-16T00:35:54.682Z,89.00
2017-12-16T00:38:22.266Z,89.26
2017-12-16T00:40:49.886Z,89.21
2017-12-16T00:43:17.466Z,89.21
2017-12-16T00:45:45.098Z,89.09
2017-12-16T00:48:12.676Z,88.99
2017-12-16T00:50:40.371Z,88.96
2017-12-16T00:53:07.948Z,88.97
2017-12-16T00:55:35.606Z,88.98
2017-12-16T00:58:03.174Z,89.26
2017-12-16T01:00:30.780Z,89.33
2017-12-16T01:02:58.373Z,89.26
2017-12-16T01:05:25.948Z,89.03
2017-12-16T01:07:53.563Z,89.34
2017-12-16T01:10:21.130Z,89.19
2017-12-16T01:12:48.739Z,89.15
2017-12-16T01:15:16.378Z,89.50
2017-12-16T01:17:44.010Z,89.38
2017-12-16T01:20:11.774Z,89.61
2017-12-16T01:22:39.470Z,89.34
2017-12-16T01:25:07.188Z,89.37
2017-12-16T01:27:34.862Z,89.31
2017-12-16T01:30:02.430Z,89.43
2017-12-16T01:32:30.340Z,89.23
2017-12-16T01:35:09.546Z,88.98
2017-12-16T01:37:48.904Z,88.91
2017-12-16T01:40:16.538Z,89.33
2017-12-16T01:42:44.117Z,89.69
2017-12-16T01:45:11.734Z,89.72
2017-12-16T01:47:39.312Z,90.04
2017-12-16T01:50:06.931Z,90.08
2017-12-16T01:52:34.525Z,90.02
2017-12-16T01:55:02.103Z,89.58
2017-12-16T01:57:29.672Z,89.50
2017-12-16T01:59:57.259Z,89.67
2017-12-16T02:02:24.848Z,90.09
2017-12-16T02:04:52.448Z,90.29
2017-12-16T02:07:20.030Z,90.24
2017-12-16T02:09:48.026Z,90.39
2017-12-16T02:12:15.610Z,90.46
2017-12-16T02:14:43.192Z,90.38
2017-12-16T02:17:10.792Z,90.22
2017-12-16T02:19:38.345Z,90.04
2017-12-16T02:22:06.792Z,89.91
2017-12-16T02:24:34.366Z,90.05
2017-12-16T02:27:01.979Z,90.17
2017-12-16T02:29:29.539Z,90.42
2017-12-16T02:31:57.148Z,90.53
2017-12-16T02:34:24.779Z,90.46
2017-12-16T02:36:52.393Z,90.32
2017-12-16T02:39:19.967Z,90.34
2017-12-16T02:41:47.553Z,90.59
2017-12-16T02:44:15.144Z,90.29
2017-12-16T02:46:42.718Z,90.54
2017-12-16T02:49:10.315Z,90.80
2017-12-16T02:51:37.890Z,91.01
2017-12-16T02:54:05.502Z,90.91
2017-12-16T02:56:33.130Z,90.84
2017-12-16T02:59:00.729Z,90.71
2017-12-16T03:01:28.322Z,90.69
2017-12-16T03:03:55.912Z,90.57
2017-12-16T03:06:23.518Z,90.56
2017-12-16T03:08:51.157Z,90.76
2017-12-16T03:11:19.297Z,90.89
2017-12-16T03:13:46.854Z,91.02
2017-12-16T03:16:14.455Z,91.09
2017-12-16T03:18:42.065Z,91.10
2017-12-16T03:21:09.663Z,91.00
2017-12-16T03:23:37.233Z,91.07
2017-12-16T03:26:04.858Z,91.20
2017-12-16T03:28:32.416Z,91.25
2017-12-16T03:30:59.995Z,91.06
2017-12-16T03:33:27.564Z,90.92
2017-12-16T03:35:55.635Z,90.79
2017-12-16T03:38:23.240Z,90.82
2017-12-16T03:40:50.814Z,91.30
2017-12-16T03:43:18.393Z,91.54
2017-12-16T03:45:45.969Z,91.67
2017-12-16T03:48:13.562Z,91.76
2017-12-16T03:50:41.151Z,92.04
2017-12-16T03:53:08.778Z,92.18
2017-12-16T03:55:36.371Z,92.17
2017-12-16T03:58:03.955Z,92.01
2017-12-16T04:00:31.515Z,92.04
2017-12-16T04:02:59.379Z,91.97
2017-12-16T04:05:27.061Z,92.04
2017-12-16T04:07:54.624Z,92.34
2017-12-16T04:10:22.219Z,92.63
2017-12-16T04:12:49.797Z,92.53
2017-12-16T04:15:17.403Z,92.51
2017-12-16T04:17:44.967Z,92.57
2017-12-16T04:20:12.569Z,92.54
2017-12-16T04:22:40.134Z,92.58
2017-12-16T04:25:07.765Z,92.60
2017-12-16T04:27:35.454Z,92.78
2017-12-16T04:30:03.286Z,92.76
2017-12-16T04:32:30.849Z,92.53
2017-12-16T04:34:58.473Z,92.42
2017-12-16T04:37:26.064Z,92.30
2017-12-16T04:39:53.651Z,92.50
2017-12-16T04:42:21.228Z,92.90
2017-12-16T04:44:48.841Z,92.88
2017-12-16T04:47:16.481Z,93.05
2017-12-16T04:49:44.079Z,93.04
2017-12-16T04:52:11.684Z,93.05
2017-12-16T04:54:39.265Z,92.84
2017-12-16T04:57:07.319Z,92.69
2017-12-16T04:59:34.897Z,92.87
2017-12-16T05:02:02.473Z,92.93
2017-12-16T05:04:30.109Z,92.80
2017-12-16T05:06:57.674Z,92.57
2017-12-16T05:09:25.283Z,92.55
2017-12-16T05:11:52.876Z,92.80
2017-12-16T05:14:20.463Z,92.83
2017-12-16T05:16:48.043Z,92.87
2017-12-16T05:19:15.635Z,92.84
2017-12-16T05:21:43.204Z,92.93
2017-12-16T05:24:12.171Z,92.85
2017-12-16T05:26:39.736Z,92.88
2017-12-16T05:29:07.313Z,93.06
2017-12-16T05:31:34.943Z,93.18
2017-12-16T05:34:02.514Z,93.25
2017-12-16T05:36:30.189Z,93.25
2017-12-16T05:38:57.759Z,93.17
2017-12-16T05:41:25.365Z,93.15
2017-12-16T05:43:52.978Z,93.12
2017-12-16T05:46:20.543Z,93.16
2017-12-16T05:48:48.125Z,93.13
2017-12-16T05:51:15.739Z,92.94
2017-12-16T05:53:43.333Z,92.83
2017-12-16T05:56:10.876Z,92.76
2017-12-16T05:58:38.473Z,92.50
2017-12-16T06:01:06.027Z,92.28
2017-12-16T06:03:33.631Z,92.13
2017-12-16T06:06:01.217Z,92.21
2017-12-16T06:08:28.824Z,92.08
2017-12-16T06:10:56.385Z,91.89
2017-12-16T06:13:24.056Z,91.79
2017-12-16T06:15:51.651Z,91.86
2017-12-16T06:18:19.267Z,91.85
2017-12-16T06:20:46.849Z,91.90
2017-12-16T06:23:14.441Z,91.88
2017-12-16T06:25:42.033Z,91.74
2017-12-16T06:28:09.692Z,91.64
2017-12-16T06:30:37.428Z,91.47
2017-12-16T06:33:05.006Z,91.50
2017-12-16T06:35:32.691Z,91.44
2017-12-16T06:38:00.254Z,91.29
2017-12-16T06:40:27.886Z,91.25
2017-12-16T06:42:55.445Z,91.03
2017-12-16T06:45:23.060Z,90.81
2017-12-16T06:47:50.638Z,90.92
2017-12-16T06:50:18.239Z,90.84
2017-12-16T06:52:45.788Z,91.07
2017-12-16T06:55:13.407Z,91.36
2017-12-16T06:57:40.968Z,91.34
2017-12-16T07:00:08.586Z,91.46
2017-12-16T07:02:36.158Z,91.65
2017-12-16T07:05:03.720Z,91.89
2017-12-16T07:07:31.340Z,91.80
2017-12-16T07:09:58.938Z,91.77
2017-12-16T07:12:26.548Z,91.70
2017-12-16T07:14:54.118Z,91.58
2017-12-16T07:17:21.708Z,91.47
2017-12-16T07:19:49.282Z,91.45
2017-12-16T07:22:17.399Z,91.47
2017-12-16T07:24:44.990Z,91.38
2017-12-16T07:27:12.561Z,91.30
2017-12-16T07:29:40.158Z,91.32
2017-12-16T07:32:07.758Z,91.29
2017-12-16T07:34:35.363Z,91.25
2017-12-16T07:37:03.091Z,91.30
2017-12-16T07:39:30.717Z,91.14
2017-12-16T07:41:58.294Z,90.92
2017-12-16T07:44:25.908Z,90.69
2017-12-16T07:46:53.624Z,90.66
2017-12-16T07:49:21.222Z,90.62
2017-12-16T07:51:48.830Z,90.66
2017-12-16T07:54:16.420Z,90.56
2017-12-16T07:56:44.142Z,90.50
2017-12-16T07:59:11.733Z,90.54
2017-12-16T08:01:39.355Z,90.67
2017-12-16T08:04:06.952Z,90.72
2017-12-16T08:06:34.554Z,90.76
2017-12-16T08:09:02.210Z,90.88
2017-12-16T08:11:29.833Z,90.96
2017-12-16T08:13:57.451Z,90.94
2017-12-16T08:16:25.067Z,90.82
2017-12-16T08:18:52.675Z,90.67
2017-12-16T08:21:20.302Z,90.53
2017-12-16T08:23:47.876Z,90.15
2017-12-16T08:26:15.501Z,89.85
2017-12-16T08:28:43.616Z,89.94
2017-12-16T08:31:11.204Z,89.78
2017-12-16T08:33:38.830Z,89.47
2017-12-16T08:36:06.441Z,89.21
2017-12-16T08:38:34.087Z,89.22
2017-12-16T08:41:01.660Z,89.01
2017-12-16T08:43:29.305Z,89.11
2017-12-16T08:45:56.880Z,88.75
2017-12-16T08:48:25.056Z,88.81
2017-12-16T08:50:52.656Z,88.74
2017-12-16T08:53:20.227Z,88.92
2017-12-16T08:55:47.996Z,88.86
2017-12-16T08:58:15.636Z,88.75
2017-12-16T09:00:43.229Z,88.50
2017-12-16T09:03:10.804Z,88.43
2017-12-16T09:05:38.465Z,88.27
2017-12-16T09:08:06.015Z,88.08
2017-12-16T09:10:33.652Z,88.01
2017-12-16T09:13:01.218Z,87.74
2017-12-16T09:15:28.815Z,87.74
2017-12-16T09:17:56.441Z,87.59
2017-12-16T09:20:24.070Z,87.27
2017-12-16T09:22:52.381Z,87.14
2017-12-16T09:25:19.978Z,87.21
2017-12-16T09:27:47.606Z,87.05
2017-12-16T09:30:15.191Z,87.14
2017-12-16T09:32:42.780Z,86.92
2017-12-16T09:35:10.421Z,86.89
2017-12-16T09:37:38.021Z,86.77
2017-12-16T09:40:07.589Z,86.72
2017-12-16T09:42:35.223Z,86.67
2017-12-16T09:45:02.855Z,86.36
2017-12-16T09:47:30.456Z,86.68
2017-12-16T09:49:58.114Z,86.70
2017-12-16T09:52:25.753Z,86.55
2017-12-16T09:54:53.433Z,86.49
2017-12-16T09:57:21.038Z,86.96
2017-12-16T09:59:48.689Z,86.89
2017-12-16T10:02:16.316Z,86.79
2017-12-16T10:04:43.967Z,86.58
2017-12-16T10:07:11.561Z,86.61
2017-12-16T10:09:39.216Z,86.68
2017-12-16T10:12:06.911Z,86.60
2017-12-16T10:14:34.490Z,86.49
2017-12-16T10:17:02.102Z,86.34
2017-12-16T10:19:29.743Z,86.49
2017-12-16T10:21:57.363Z,86.50
2017-12-16T10:24:25.040Z,86.51
2017-12-16T10:26:52.673Z,86.51
2017-12-16T10:29:20.267Z,86.18
2017-12-16T10:31:47.869Z,86.05
2017-12-16T10:34:15.458Z,86.47
2017-12-16T10:36:43.082Z,86.38
2017-12-16T10:39:10.669Z,86.51
2017-12-16T10:41:38.445Z,86.34
2017-12-16T10:44:06.051Z,86.15
2017-12-16T10:46:33.688Z,86.30
2017-12-16T10:49:01.352Z,86.53
2017-12-16T10:51:29.044Z,86.52
2017-12-16T10:53:56.671Z,86.41
2017-12-16T10:56:24.293Z,86.46
2017-12-16T10:58:51.944Z,86.18
2017-12-16T11:01:19.689Z,86.13
2017-12-16T11:03:47.373Z,86.03
2017-12-16T11:06:14.974Z,86.07
2017-12-16T11:08:43.460Z,85.86
2017-12-16T11:11:11.051Z,85.87
2017-12-16T11:13:39.007Z,86.12
2017-12-16T11:16:06.616Z,85.82
2017-12-16T11:18:34.220Z,85.90
2017-12-16T11:21:01.863Z,86.08
2017-12-16T11:23:29.465Z,85.79
2017-12-16T11:25:57.097Z,85.80
2017-12-16T11:28:24.698Z,85.55
2017-12-16T11:30:52.299Z,85.57
2017-12-16T11:33:19.889Z,85.61
2017-12-16T11:35:47.474Z,85.76
2017-12-16T11:38:15.081Z,85.76
2017-12-16T11:40:42.695Z,86.22
2017-12-16T11:43:10.403Z,86.82
2017-12-16T11:45:37.965Z,87.17
2017-12-16T11:48:05.604Z,87.61
2017-12-16T11:50:33.242Z,87.76
2017-12-16T11:53:00.883Z,87.68
2017-12-16T11:55:28.503Z,87.36
2017-12-16T11:57:56.113Z,87.16
2017-12-16T12:00:23.699Z,87.19
2017-12-16T12:02:51.893Z,87.27
2017-12-16T12:05:19.730Z,87.39
2017-12-16T12:07:47.329Z,87.34
2017-12-16T12:10:14.945Z,87.27
2017-12-16T12:12:42.592Z,87.33
2017-12-16T12:15:10.248Z,87.31
2017-12-16T12:17:37.847Z,87.48
2017-12-16T12:20:05.481Z,87.57
2017-12-16T12:22:33.106Z,87.88
2017-12-16T12:25:00.745Z,87.92
2017-12-16T12:27:28.371Z,87.95
2017-12-16T12:29:56.013Z,88.05
2017-12-16T12:32:23.583Z,88.13
2017-12-16T12:34:51.185Z,88.45
2017-12-16T12:37:18.779Z,88.61
2017-12-16T12:39:46.396Z,88.95
2017-12-16T12:42:14.021Z,88.14
2017-12-16T12:44:41.621Z,88.26
2017-12-16T12:47:09.352Z,88.19
2017-12-16T12:49:36.943Z,88.59
2017-12-16T12:52:04.561Z,88.90
2017-12-16T12:54:32.155Z,89.04
2017-12-16T12:56:59.801Z,89.47
2017-12-16T12:59:27.394Z,89.58
2017-12-16T13:01:55.048Z,89.60
2017-12-16T13:04:22.651Z,89.85
2017-12-16T13:06:50.247Z,89.98
2017-12-16T13:09:17.853Z,90.50
2017-12-16T13:11:45.452Z,91.05
2017-12-16T13:14:13.103Z,91.46
2017-12-16T13:16:40.677Z,91.79
2017-12-16T13:19:08.299Z,92.39
2017-12-16T13:21:35.913Z,92.43
2017-12-16T13:24:03.535Z,92.73
2017-12-16T13:26:31.120Z,92.78
2017-12-16T13:28:58.725Z,92.93
2017-12-16T13:31:26.316Z,92.70
2017-12-16T13:33:53.904Z,93.07
2017-12-16T13:36:21.532Z,92.99
2017-12-16T13:38:49.146Z,92.87
2017-12-16T13:41:16.741Z,92.73
2017-12-16T13:43:44.369Z,92.95
2017-12-16T13:46:12.002Z,92.96
2017-12-16T13:48:39.588Z,92.91
2017-12-16T13:51:07.232Z,92.85
2017-12-16T13:53:34.839Z,92.97
2017-12-16T13:56:02.463Z,93.10
2017-12-16T13:58:30.056Z,93.07
2017-12-16T14:00:57.619Z,93.22
2017-12-16T14:03:25.239Z,92.93
2017-12-16T14:05:52.815Z,92.89
2017-12-16T14:08:20.436Z,92.77
2017-12-16T14:10:48.028Z,92.78
2017-12-16T14:13:15.654Z,92.86
2017-12-16T14:15:43.251Z,93.03
2017-12-16T14:18:10.929Z,93.11
2017-12-16T14:20:38.535Z,93.09
2017-12-16T14:23:06.241Z,92.56
2017-12-16T14:25:33.871Z,91.76
2017-12-16T14:28:01.792Z,91.66
2017-12-16T14:30:29.460Z,90.84
2017-12-16T14:32:57.043Z,90.98
2017-12-16T14:35:25.850Z,91.02
2017-12-16T14:37:53.481Z,91.15
2017-12-16T14:40:21.092Z,90.97
2017-12-16T14:42:48.695Z,91.14
2017-12-16T14:45:16.389Z,91.51
2017-12-16T14:47:43.974Z,91.50
2017-12-16T14:50:11.588Z,91.27
2017-12-16T14:52:39.197Z,91.59
2017-12-16T14:55:06.864Z,91.63
2017-12-16T14:57:34.464Z,91.82
2017-12-16T15:00:02.034Z,91.67
2017-12-16T15:02:29.646Z,91.53
2017-12-16T15:04:57.240Z,91.75
2017-12-16T15:07:24.902Z,91.88
2017-12-16T15:09:52.476Z,92.03
2017-12-16T15:12:20.114Z,91.64
2017-12-16T15:14:47.680Z,91.72
2017-12-16T15:17:15.349Z,91.46
2017-12-16T15:19:42.935Z,91.76
2017-12-16T15:22:10.555Z,91.75
2017-12-16T15:24:38.153Z,91.06
2017-12-16T15:27:05.735Z,90.90
2017-12-16T15:29:33.362Z,90.87
2017-12-16T15:32:00.961Z,90.96
2017-12-16T15:34:28.571Z,91.33
2017-12-16T15:36:56.178Z,91.23
2017-12-16T15:39:23.795Z,91.32
2017-12-16T15:41:51.418Z,91.12
2017-12-16T15:44:19.030Z,90.93
2017-12-16T15:46:46.691Z,90.52
2017-12-16T15:49:14.298Z,90.17
2017-12-16T15:51:41.908Z,90.15
2017-12-16T15:54:09.488Z,90.46
2017-12-16T15:56:37.129Z,90.52
2017-12-16T15:59:04.728Z,90.65
2017-12-16T16:01:32.361Z,90.79
2017-12-16T16:03:59.996Z,90.49
2017-12-16T16:06:27.656Z,90.76
2017-12-16T16:08:55.256Z,90.82
2017-12-16T16:11:22.859Z,90.93
2017-12-16T16:13:50.506Z,90.89
2017-12-16T16:16:18.129Z,90.90
2017-12-16T16:18:45.798Z,90.69
2017-12-16T16:21:13.415Z,90.55
2017-12-16T16:23:41.008Z,90.61
2017-12-16T16:26:08.594Z,90.51
2017-12-16T16:28:36.183Z,90.44
2017-12-16T16:31:03.791Z,90.41
2017-12-16T16:33:31.386Z,90.54
2017-12-16T16:35:59.006Z,90.39
2017-12-16T16:38:26.631Z,90.35
2017-12-16T16:40:54.218Z,90.18
2017-12-16T16:43:22.108Z,90.37
2017-12-16T16:45:49.686Z,90.30
2017-12-16T16:48:17.277Z,90.26
2017-12-16T16:50:44.876Z,90.29
2017-12-16T16:53:12.466Z,90.31
2017-12-16T16:55:40.090Z,90.34
2017-12-16T16:58:07.691Z,90.57
2017-12-16T17:00:35.305Z,90.65
2017-12-16T17:03:02.919Z,90.64
2017-12-16T17:05:30.526Z,90.69
2017-12-16T17:07:58.124Z,90.59
2017-12-16T17:10:25.753Z,90.71
2017-12-16T17:12:53.397Z,90.74
2017-12-16T17:15:21.008Z,90.73
2017-12-16T17:17:48.607Z,91.00
2017-12-16T17:20:16.267Z,90.98
2017-12-16T17:22:43.933Z,91.14
2017-12-16T17:25:11.584Z,91.15
2017-12-16T17:27:39.218Z,90.94
2017-12-16T17:30:06.840Z,90.94
2017-12-16T17:32:34.521Z,91.01
2017-12-16T17:35:02.129Z,90.96
2017-12-16T17:37:29.822Z,91.20
2017-12-16T17:39:57.436Z,91.10
2017-12-16T17:42:25.037Z,91.14
2017-12-16T17:44:52.654Z,91.10
2017-12-16T17:47:20.255Z,91.01
2017-12-16T17:49:47.901Z,91.20
2017-12-16T17:52:15.517Z,91.24
2017-12-16T17:54:43.136Z,91.39
2017-12-16T17:57:10.724Z,91.46
2017-12-16T17:59:38.357Z,91.63
2017-12-16T18:02:05.976Z,91.60
2017-12-16T18:04:33.577Z,91.72
2017-12-16T18:07:01.342Z,91.85
2017-12-16T18:09:29.160Z,92.05
2017-12-16T18:11:56.783Z,92.23
2017-12-16T18:14:24.392Z,92.28
2017-12-16T18:16:52.049Z,92.52
2017-12-16T18:19:19.642Z,92.54
2017-12-16T18:21:47.288Z,92.53
2017-12-16T18:24:14.911Z,92.61
2017-12-16T18:26:43.446Z,92.64
2017-12-16T18:29:11.031Z,92.63
2017-12-16T18:31:39.001Z,92.75
2017-12-16T18:34:06.571Z,92.87
2017-12-16T18:36:34.161Z,92.86
2017-12-16T18:39:01.764Z,92.92
2017-12-16T18:41:29.384Z,92.95
2017-12-16T18:43:57.058Z,92.87
2017-12-16T18:46:24.735Z,92.50
2017-12-16T18:48:52.353Z,92.79
2017-12-16T18:51:19.937Z,93.21
2017-12-16T18:53:47.530Z,93.71
2017-12-16T18:56:15.149Z,93.81
2017-12-16T18:58:42.804Z,93.79
2017-12-16T19:01:10.393Z,94.01
2017-12-16T19:03:38.052Z,94.37
2017-12-16T19:06:05.653Z,94.68
2017-12-16T19:08:33.266Z,95.16
2017-12-16T19:11:01.000Z,95.51
2017-12-16T19:13:28.617Z,95.82
2017-12-16T19:15:56.293Z,95.89
2017-12-16T19:18:23.894Z,96.15
2017-12-16T19:20:51.569Z,96.20
2017-12-16T19:23:19.213Z,96.18
2017-12-16T19:25:46.849Z,96.26
2017-12-16T19:28:14.542Z,96.25
2017-12-16T19:30:42.183Z,96.31
2017-12-16T19:33:09.846Z,96.19
2017-12-16T19:35:37.529Z,96.20
2017-12-16T19:38:05.166Z,96.19
2017-12-16T19:40:32.818Z,96.19
2017-12-16T19:43:00.555Z,96.19
2017-12-16T19:45:28.347Z,96.08
2017-12-16T19:47:56.046Z,96.01
2017-12-16T19:50:23.678Z,95.84
2017-12-16T19:52:51.344Z,95.81
2017-12-16T19:55:19.071Z,95.64
2017-12-16T19:57:46.704Z,95.51
2017-12-16T20:00:14.618Z,95.42
2017-12-16T20:02:42.372Z,95.35
2017-12-16T20:05:10.204Z,95.26
2017-12-16T20:07:37.993Z,95.20
2017-12-16T20:10:05.727Z,95.13
2017-12-16T20:12:33.492Z,95.24
2017-12-16T20:15:01.248Z,95.05
2017-12-16T20:17:28.971Z,95.07
2017-12-16T20:19:56.732Z,95.15
2017-12-16T20:22:24.441Z,94.92
2017-12-16T20:24:52.548Z,94.78
2017-12-16T20:27:20.300Z,94.70
2017-12-16T20:29:48.011Z,94.69
2017-12-16T20:32:15.715Z,94.54
2017-12-16T20:34:43.420Z,94.53
2017-12-16T20:37:11.140Z,94.46
2017-12-16T20:39:38.902Z,94.40
2017-12-16T20:42:06.568Z,94.31
2017-12-16T20:44:34.313Z,94.34
2017-12-16T20:47:02.035Z,94.36
2017-12-16T20:49:29.745Z,94.40
2017-12-16T20:51:57.479Z,94.64
2017-12-16T20:54:25.206Z,94.74
2017-12-16T20:56:52.963Z,94.78
2017-12-16T20:59:20.720Z,94.89
2017-12-16T21:01:48.456Z,94.86
2017-12-16T21:04:16.178Z,94.94
2017-12-16T21:06:44.070Z,94.88
2017-12-16T21:09:11.809Z,94.77
2017-12-16T21:11:39.559Z,94.81
2017-12-16T21:14:07.309Z,94.62
2017-12-16T21:16:35.043Z,94.60
2017-12-16T21:19:02.797Z,94.51
2017-12-16T21:21:30.507Z,94.45
2017-12-16T21:23:58.246Z,94.28
2017-12-16T21:26:25.999Z,94.34
2017-12-16T21:28:54.131Z,94.34
2017-12-16T21:31:21.827Z,94.47
2017-12-16T21:33:51.407Z,94.60
2017-12-16T21:36:19.251Z,94.84
2017-12-16T21:38:46.943Z,94.94
2017-12-16T21:41:14.865Z,94.93
2017-12-16T21:43:42.474Z,94.93
2017-12-16T21:46:10.145Z,95.07
2017-12-16T21:48:37.783Z,95.09
2017-12-16T21:51:05.502Z,95.00
2017-12-16T21:53:33.145Z,95.02
2017-12-16T21:56:00.791Z,94.98
2017-12-16T21:58:28.431Z,94.96
2017-12-16T22:00:56.081Z,94.86
2017-12-16T22:03:23.700Z,94.89
2017-12-16T22:05:51.531Z,94.83
2017-12-16T22:08:19.141Z,94.91
2017-12-16T22:10:46.725Z,95.00
2017-12-16T22:13:14.332Z,95.07
2017-12-16T22:15:42.230Z,95.00
2017-12-16T22:18:09.860Z,95.06
2017-12-16T22:20:37.436Z,94.98
2017-12-16T22:23:05.201Z,94.99
2017-12-16T22:25:32.786Z,94.94
2017-12-16T22:28:00.401Z,94.96
2017-12-16T22:30:27.997Z,95.01
2017-12-16T22:32:55.626Z,94.96
2017-12-16T22:35:23.291Z,94.95
2017-12-16T22:37:50.910Z,94.97
2017-12-16T22:40:18.505Z,95.05
2017-12-16T22:42:46.099Z,95.17
2017-12-16T22:45:13.689Z,95.22
2017-12-16T22:47:41.375Z,95.27
2017-12-16T22:50:09.117Z,95.56
2017-12-16T22:52:36.701Z,95.74
2017-12-16T22:55:04.309Z,95.74
2017-12-16T22:57:31.892Z,95.71
2017-12-16T22:59:59.483Z,96.02
2017-12-16T23:02:27.077Z,96.11
2017-12-16T23:04:54.950Z,96.20
2017-12-16T23:07:22.521Z,96.22
2017-12-16T23:09:50.097Z,96.16
2017-12-16T23:12:17.795Z,96.01
2017-12-16T23:14:45.411Z,95.97
2017-12-16T23:17:13.009Z,95.78
2017-12-16T23:19:40.602Z,95.68
2017-12-16T23:22:08.208Z,95.62
2017-12-16T23:24:35.783Z,95.64
2017-12-16T23:27:03.386Z,95.63
2017-12-16T23:29:30.956Z,95.85
2017-12-16T23:31:58.551Z,95.72
2017-12-16T23:34:26.114Z,95.71
2017-12-16T23:36:53.773Z,95.85
2017-12-16T23:39:21.359Z,95.86
2017-12-16T23:41:48.943Z,95.90
2017-12-16T23:44:16.538Z,95.85
2017-12-16T23:46:44.121Z,95.79
2017-12-16T23:49:11.733Z,95.79
2017-12-16T23:51:39.291Z,95.76
2017-12-16T23:54:06.879Z,95.75
2017-12-16T23:56:34.439Z,95.77
2017-12-16T23:59:02.026Z,95.79
